Time;durP1;ratioP1;P1;durP2;ratioP2;P2;SDS_P1;SDS_P2;PMS_P1;PMS_P2;Temp;Humidity;BMP_temperature;BMP_pressure;BME280_temperature;BME280_humidity;BME280_pressure;Samples;Min_cycle;Max_cycle;Signal;HPM_P1;HPM_P2
2022/10/01 00:01:15;;;;;;;22.10;19.80;;;;;;;11.82;72.14;100197.55;105638;1281;22811;-76
2022/10/01 00:03:42;;;;;;;23.90;19.80;;;;;;;11.75;71.88;100198.90;105494;1281;24426;-79
2022/10/01 00:06:12;;;;;;;22.10;19.70;;;;;;;11.72;71.95;100196.30;105291;1282;26489;-79
2022/10/01 00:08:41;;;;;;;21.30;19.30;;;;;;;11.70;72.01;100195.27;105990;1274;22586;-81
2022/10/01 00:11:11;;;;;;;20.80;18.70;;;;;;;11.65;71.98;100194.84;105972;1274;23720;-80
2022/10/01 00:13:38;;;;;;;22.20;19.80;;;;;;;11.65;72.24;100195.70;106113;1275;22844;-79
2022/10/01 00:16:07;;;;;;;23.40;20.90;;;;;;;11.58;72.24;100191.41;106130;1274;26545;-77
2022/10/01 00:18:40;;;;;;;22.10;19.90;;;;;;;11.56;72.37;100195.34;106323;1274;22874;-75
2022/10/01 00:21:09;;;;;;;23.50;20.10;;;;;;;11.56;72.54;100199.04;106144;1274;25226;-81
2022/10/01 00:23:37;;;;;;;23.70;21.30;;;;;;;11.55;72.47;100198.88;106253;1274;25584;-78
2022/10/01 00:26:16;;;;;;;22.00;19.70;;;;;;;11.53;72.47;100203.67;106225;1274;24021;-74
2022/10/01 00:28:45;;;;;;;21.40;19.10;;;;;;;11.45;72.42;100200.45;106201;1274;24214;-77
2022/10/01 00:31:14;;;;;;;21.30;19.10;;;;;;;11.40;72.81;100202.81;105794;1281;22532;-79
2022/10/01 00:33:41;;;;;;;20.30;18.40;;;;;;;11.43;73.10;100197.31;105579;1280;22562;-79
2022/10/01 00:36:10;;;;;;;20.00;18.10;;;;;;;11.50;73.14;100193.31;105478;1279;25250;-82
2022/10/01 00:38:41;;;;;;;22.20;19.90;;;;;;;11.54;72.95;100199.59;105867;1279;24183;-81
2022/10/01 00:41:09;;;;;;;22.40;20.20;;;;;;;11.48;72.90;100205.16;105953;1279;25187;-78
2022/10/01 00:43:41;;;;;;;21.20;19.10;;;;;;;11.43;72.99;100205.77;106028;1279;25338;-81
2022/10/01 00:46:41;;;;;;;20.50;18.50;;;;;;;11.36;73.13;100213.27;105432;1281;22639;-80
2022/10/01 00:49:17;;;;;;;21.10;19.10;;;;;;;11.38;73.23;100222.24;105344;1278;22679;-78
2022/10/01 00:51:49;;;;;;;21.20;19.10;;;;;;;11.45;73.65;100219.48;105956;1278;25535;-79
2022/10/01 00:54:22;;;;;;;21.90;19.70;;;;;;;11.51;73.43;100209.34;105896;1277;22543;-81
2022/10/01 00:56:52;;;;;;;23.00;20.70;;;;;;;11.47;73.20;100200.42;105983;1277;22662;-83
2022/10/01 00:59:20;;;;;;;21.30;19.10;;;;;;;11.44;73.11;100199.05;105875;1278;24037;-81
2022/10/01 01:01:47;;;;;;;21.30;19.20;;;;;;;11.42;73.10;100201.90;105703;1278;23961;-83
2022/10/01 01:04:17;;;;;;;21.10;18.80;;;;;;;11.39;73.14;100198.95;106266;1277;26489;-78
2022/10/01 01:06:54;;;;;;;22.00;19.70;;;;;;;11.40;73.37;100192.23;105880;1275;24194;-79
2022/10/01 01:09:32;;;;;;;22.20;19.80;;;;;;;11.46;73.51;100194.09;106327;1274;25453;-78
2022/10/01 01:12:30;;;;;;;23.20;20.70;;;;;;;11.50;73.64;100192.07;106038;1279;23937;-81
2022/10/01 01:15:06;;;;;;;23.30;21.00;;;;;;;11.51;73.37;100192.23;106108;1279;23196;-80
2022/10/01 01:17:46;;;;;;;21.10;19.10;;;;;;;11.41;73.27;100194.16;105710;1284;23645;-80
2022/10/01 01:20:46;;;;;;;21.00;18.80;;;;;;;11.37;73.74;100189.98;105613;1284;25558;-77
2022/10/01 01:23:15;;;;;;;21.30;19.20;;;;;;;11.40;73.91;100197.16;105869;1284;22506;-77
2022/10/01 01:26:20;;;;;;;22.20;20.10;;;;;;;11.45;73.98;100197.80;106305;1284;23293;-79
2022/10/01 01:28:54;;;;;;;23.10;20.70;;;;;;;11.51;74.07;100201.23;105998;1285;22589;-81
2022/10/01 01:31:28;;;;;;;22.30;20.10;;;;;;;11.52;73.86;100199.98;106539;1281;22535;-81
2022/10/01 01:33:59;;;;;;;23.70;21.30;;;;;;;11.55;74.04;100201.34;106963;1281;25397;-82
2022/10/01 01:36:31;;;;;;;23.50;21.10;;;;;;;11.58;73.85;100209.77;106881;1278;22572;-82
2022/10/01 01:39:03;;;;;;;21.60;19.40;;;;;;;11.60;73.83;100208.84;106481;1278;22560;-82
2022/10/01 01:41:33;;;;;;;21.90;19.50;;;;;;;11.63;73.73;100205.27;106289;1278;22555;-82
2022/10/01 01:44:05;;;;;;;21.60;19.50;;;;;;;11.68;73.62;100206.60;106139;1278;25497;-80
2022/10/01 01:46:35;;;;;;;23.00;20.80;;;;;;;11.70;73.48;100201.80;106255;1278;23134;-86
2022/10/01 01:49:04;;;;;;;23.10;20.70;;;;;;;11.66;73.34;100202.21;105957;1281;22726;-82
2022/10/01 01:51:39;;;;;;;22.40;20.20;;;;;;;11.62;73.25;100215.52;105978;1278;25135;-83
2022/10/01 01:54:07;;;;;;;22.80;20.60;;;;;;;11.66;73.57;100219.34;106859;1274;22544;-81
2022/10/01 01:56:34;;;;;;;23.10;20.50;;;;;;;11.62;73.30;100211.98;106893;1276;23958;-87
2022/10/01 01:59:02;;;;;;;23.70;21.30;;;;;;;11.53;73.05;100204.37;106555;1275;24227;-77
2022/10/01 02:01:38;;;;;;;22.80;20.40;;;;;;;11.49;73.40;100209.71;106477;1274;25367;-80
2022/10/01 02:04:10;;;;;;;23.40;21.00;;;;;;;11.54;73.85;100211.77;106544;1274;22567;-81
2022/10/01 02:07:05;;;;;;;24.80;22.20;;;;;;;11.59;73.84;100213.45;106527;1274;22549;-80
2022/10/01 02:10:11;;;;;;;24.10;21.40;;;;;;;11.53;73.50;100215.30;106220;1274;25245;-80
2022/10/01 02:12:53;;;;;;;23.30;20.90;;;;;;;11.33;73.80;100223.90;106119;1274;24345;-79
2022/10/01 02:15:34;;;;;;;22.90;20.80;;;;;;;11.30;74.10;100227.83;106121;1274;22587;-80
2022/10/01 02:18:17;;;;;;;22.50;20.20;;;;;;;11.26;74.39;100228.23;105751;1279;22526;-80
2022/10/01 02:20:49;;;;;;;23.60;21.20;;;;;;;11.25;74.44;100231.59;105813;1279;22741;-79
2022/10/01 02:23:24;;;;;;;24.50;22.10;;;;;;;11.22;74.33;100230.59;105762;1279;22705;-78
2022/10/01 02:25:57;;;;;;;26.30;23.80;;;;;;;11.15;74.63;100229.44;105144;1285;25389;-80
2022/10/01 02:28:24;;;;;;;24.10;21.90;;;;;;;11.12;74.65;100231.78;105001;1285;25381;-80
2022/10/01 02:30:54;;;;;;;23.00;20.70;;;;;;;11.01;74.81;100229.27;105137;1285;26662;-79
2022/10/01 02:33:30;;;;;;;24.80;22.20;;;;;;;10.93;74.91;100230.45;104857;1285;25415;-79
2022/10/01 02:36:00;;;;;;;27.30;21.80;;;;;;;10.90;75.38;100226.44;105038;1281;22776;-80
2022/10/01 02:38:28;;;;;;;24.80;22.50;;;;;;;10.87;75.51;100220.83;105526;1281;22541;-78
2022/10/01 02:40:59;;;;;;;27.20;24.30;;;;;;;10.87;75.64;100217.31;105311;1282;25406;-78
2022/10/01 02:43:41;;;;;;;24.70;22.30;;;;;;;10.89;75.79;100214.98;105523;1274;26511;-81
2022/10/01 02:46:20;;;;;;;25.00;22.40;;;;;;;10.92;75.64;100206.33;105911;1276;25442;-79
2022/10/01 02:48:50;;;;;;;24.50;22.10;;;;;;;10.95;75.71;100195.00;106124;1274;25357;-80
2022/10/01 02:51:16;;;;;;;24.30;21.80;;;;;;;11.02;75.65;100192.97;105962;1276;22545;-79
2022/10/01 02:53:48;;;;;;;24.30;22.00;;;;;;;11.09;75.71;100191.45;106098;1274;25234;-82
2022/10/01 02:57:21;;;;;;;25.50;23.00;;;;;;;11.18;75.76;100186.95;106162;1276;22648;-85
2022/10/01 02:59:14;;;;;;;26.50;23.90;;;;;;;11.24;75.61;100182.43;106293;1274;25552;-80
2022/10/01 03:01:41;;;;;;;26.10;23.50;;;;;;;11.29;75.66;100181.64;106112;1274;25541;-85
2022/10/01 03:04:08;;;;;;;25.70;23.10;;;;;;;11.32;75.68;100175.63;106100;1274;25244;-77
2022/10/01 03:06:35;;;;;;;24.40;22.00;;;;;;;11.35;75.63;100173.98;106250;1274;22534;-82
2022/10/01 03:09:02;;;;;;;23.10;20.80;;;;;;;11.36;75.75;100168.31;106358;1274;22545;-81
2022/10/01 03:11:29;;;;;;;23.60;20.90;;;;;;;11.42;75.90;100165.23;108344;1276;25374;-81
2022/10/01 03:13:57;;;;;;;23.60;21.30;;;;;;;11.44;75.84;100165.02;107816;1274;25711;-73
2022/10/01 03:16:24;;;;;;;25.00;22.70;;;;;;;11.44;75.72;100163.09;106413;1278;23895;-78
2022/10/01 03:18:51;;;;;;;25.80;23.30;;;;;;;11.42;75.70;100160.48;107214;1277;24221;-79
2022/10/01 03:21:18;;;;;;;26.20;23.40;;;;;;;11.40;75.74;100158.20;106798;1277;22653;-79
2022/10/01 03:23:44;;;;;;;25.50;23.00;;;;;;;11.37;75.75;100151.91;106929;1278;22854;-81
2022/10/01 03:26:11;;;;;;;23.30;21.10;;;;;;;11.38;75.96;100152.77;107153;1277;24499;-81
2022/10/01 03:28:38;;;;;;;23.30;20.80;;;;;;;11.42;76.05;100150.59;106170;1279;22894;-78
2022/10/01 03:31:10;;;;;;;25.90;23.10;;;;;;;11.45;76.09;100148.78;106060;1277;22598;-81
2022/10/01 03:33:37;;;;;;;24.70;22.20;;;;;;;11.49;76.11;100147.66;105903;1278;25514;-81
2022/10/01 03:36:04;;;;;;;24.60;22.00;;;;;;;11.48;75.86;100149.79;106177;1274;22583;-81
2022/10/01 03:38:31;;;;;;;24.00;21.50;;;;;;;11.46;75.85;100156.34;105979;1275;25257;-81
2022/10/01 03:40:57;;;;;;;25.60;23.00;;;;;;;11.45;76.03;100159.54;106151;1274;24229;-79
2022/10/01 03:43:27;;;;;;;24.90;22.30;;;;;;;11.43;75.90;100160.80;106335;1275;24196;-78
2022/10/01 03:45:55;;;;;;;23.70;21.30;;;;;;;11.41;76.06;100165.79;106214;1279;26527;-78
2022/10/01 03:48:23;;;;;;;24.00;21.70;;;;;;;11.43;75.82;100177.73;106352;1279;22945;-79
2022/10/01 03:50:58;;;;;;;26.00;23.30;;;;;;;11.37;75.71;100181.70;106413;1279;384135;-86
2022/10/01 03:53:26;;;;;;;25.80;22.60;;;;;;;11.29;75.76;100179.88;106840;1279;22544;-84
2022/10/01 03:55:54;;;;;;;25.00;22.60;;;;;;;11.26;75.89;100184.52;106596;1279;25512;-86
2022/10/01 03:58:22;;;;;;;25.80;23.00;;;;;;;11.19;75.83;100177.39;106537;1279;23033;-87
2022/10/01 04:00:49;;;;;;;24.40;21.90;;;;;;;11.19;75.97;100180.56;106368;1279;22704;-82
2022/10/01 04:03:17;;;;;;;24.60;22.10;;;;;;;11.12;75.52;100180.48;105779;1274;25928;-79
2022/10/01 04:05:44;;;;;;;23.90;21.70;;;;;;;10.94;75.40;100180.58;106063;1275;25364;-82
2022/10/01 04:08:12;;;;;;;24.60;22.10;;;;;;;10.81;75.80;100183.39;106175;1274;22556;-83
2022/10/01 04:10:40;;;;;;;26.20;23.50;;;;;;;10.75;76.34;100178.89;106023;1275;23964;-82
2022/10/01 04:13:08;;;;;;;24.30;21.90;;;;;;;10.73;76.41;100178.22;106102;1276;22553;-82
2022/10/01 04:15:35;;;;;;;25.00;22.60;;;;;;;10.68;76.25;100179.69;105910;1275;25243;-81
2022/10/01 04:18:04;;;;;;;24.90;22.20;;;;;;;10.66;76.32;100171.27;105774;1275;24369;-83
2022/10/01 04:20:37;;;;;;;26.50;23.90;;;;;;;10.65;76.46;100168.96;105802;1275;22620;-84
2022/10/01 04:23:04;;;;;;;24.10;21.80;;;;;;;10.62;76.33;100167.78;105987;1274;25338;-86
2022/10/01 04:25:31;;;;;;;25.10;22.50;;;;;;;10.64;76.34;100171.63;105905;1275;25543;-83
2022/10/01 04:28:01;;;;;;;26.80;24.10;;;;;;;10.55;75.98;100172.27;106020;1276;23941;-84
2022/10/01 04:30:32;;;;;;;25.50;23.00;;;;;;;10.48;76.25;100174.48;105836;1275;24291;-82
2022/10/01 04:32:59;;;;;;;25.40;22.80;;;;;;;10.48;76.47;100171.13;106099;1274;22914;-80
2022/10/01 04:35:26;;;;;;;25.10;22.70;;;;;;;10.51;76.51;100170.91;105993;1274;24257;-78
2022/10/01 04:38:00;;;;;;;26.10;23.30;;;;;;;10.51;76.41;100171.09;105892;1275;24375;-81
2022/10/01 04:40:29;;;;;;;25.80;23.30;;;;;;;10.54;76.46;100170.52;106047;1275;25250;-78
2022/10/01 04:42:56;;;;;;;26.20;23.60;;;;;;;10.55;76.30;100171.57;106132;1275;24327;-81
2022/10/01 04:45:23;;;;;;;27.10;24.40;;;;;;;10.55;76.14;100170.51;106014;1274;25312;-77
2022/10/01 04:47:52;;;;;;;26.00;23.30;;;;;;;10.55;76.05;100166.30;105859;1274;24506;-88
2022/10/01 04:50:21;;;;;;;23.40;21.10;;;;;;;10.55;76.07;100167.35;105569;1278;24138;-81
2022/10/01 04:52:50;;;;;;;22.40;20.20;;;;;;;10.56;76.09;100163.10;105184;1284;22569;-85
2022/10/01 04:55:19;;;;;;;24.90;22.50;;;;;;;10.55;75.97;100167.17;105196;1281;24088;-82
2022/10/01 04:57:46;;;;;;;24.20;21.80;;;;;;;10.55;76.05;100169.10;105148;1281;24310;-84
2022/10/01 05:00:17;;;;;;;25.50;22.60;;;;;;;10.55;75.87;100170.34;104999;1287;22539;-82
2022/10/01 05:02:46;;;;;;;25.30;22.60;;;;;;;10.54;75.88;100171.59;105049;1287;22610;-81
2022/10/01 05:05:16;;;;;;;25.90;23.20;;;;;;;10.53;75.91;100165.08;105092;1287;22557;-79
2022/10/01 05:07:43;;;;;;;26.10;23.40;;;;;;;10.51;75.91;100168.09;105787;1287;25381;-78
2022/10/01 05:10:18;;;;;;;22.00;19.80;;;;;;;10.50;75.83;100169.88;106067;1282;22563;-80
2022/10/01 05:12:46;;;;;;;23.30;21.00;;;;;;;10.50;75.84;100169.70;106143;1279;25434;-82
2022/10/01 05:15:15;;;;;;;24.00;21.60;;;;;;;10.50;75.78;100169.34;105557;1284;26512;-78
2022/10/01 05:17:42;;;;;;;24.30;21.80;;;;;;;10.48;75.90;100173.96;105437;1278;24338;-80
2022/10/01 05:20:15;;;;;;;27.30;24.60;;;;;;;10.48;75.94;100174.11;105677;1278;24809;-80
2022/10/01 05:22:43;;;;;;;26.90;24.20;;;;;;;10.47;75.81;100177.48;105670;1278;22703;-79
2022/10/01 05:25:10;;;;;;;27.30;24.20;;;;;;;10.42;75.86;100175.73;105229;1284;22813;-76
2022/10/01 05:27:39;;;;;;;24.80;22.30;;;;;;;10.44;75.96;100175.18;105225;1284;22530;-81
2022/10/01 05:30:08;;;;;;;26.30;23.60;;;;;;;10.47;75.97;100176.06;105320;1284;25080;-80
2022/10/01 05:32:36;;;;;;;26.40;23.60;;;;;;;10.50;75.86;100177.61;105233;1284;25074;-80
2022/10/01 05:35:07;;;;;;;26.80;23.90;;;;;;;10.50;75.98;100183.77;105770;1281;22589;-80
2022/10/01 05:37:34;;;;;;;27.30;24.40;;;;;;;10.53;76.00;100178.11;105707;1281;22778;-78
2022/10/01 05:40:01;;;;;;;26.90;24.20;;;;;;;10.43;75.46;100179.97;104991;1286;25383;-81
2022/10/01 05:42:28;;;;;;;26.30;23.70;;;;;;;10.29;75.61;100182.23;104931;1281;24186;-80
2022/10/01 05:44:55;;;;;;;26.10;23.60;;;;;;;10.26;76.18;100179.63;105675;1281;23782;-82
2022/10/01 05:47:22;;;;;;;26.70;24.00;;;;;;;10.28;76.50;100178.36;106107;1281;25840;-82
2022/10/01 05:49:49;;;;;;;27.90;24.90;;;;;;;10.37;76.79;100180.90;106091;1281;24096;-81
2022/10/01 05:52:16;;;;;;;27.60;24.70;;;;;;;10.45;76.56;100181.36;106120;1281;22900;-79
2022/10/01 05:54:43;;;;;;;29.10;26.30;;;;;;;10.48;76.45;100178.16;105651;1281;24285;-79
2022/10/01 05:57:10;;;;;;;29.10;26.10;;;;;;;10.46;76.25;100182.05;105672;1281;22562;-81
2022/10/01 05:59:37;;;;;;;29.80;26.10;;;;;;;10.38;76.24;100186.34;106049;1275;25529;-81
2022/10/01 06:02:04;;;;;;;28.20;25.30;;;;;;;10.37;76.30;100184.06;106191;1276;24367;-86
2022/10/01 06:04:31;;;;;;;27.80;24.80;;;;;;;10.40;76.44;100186.50;106237;1275;23999;-86
2022/10/01 06:07:02;;;;;;;28.50;25.70;;;;;;;10.40;76.48;100186.15;108449;1274;23114;-90
2022/10/01 06:09:30;;;;;;;28.70;25.70;;;;;;;10.42;76.44;100183.30;109270;1275;22483;-87
2022/10/01 06:11:59;;;;;;;28.50;25.50;;;;;;;10.47;76.64;100181.34;108558;1275;22546;-88
2022/10/01 06:14:27;;;;;;;27.90;25.20;;;;;;;10.48;76.46;100178.53;109498;1275;22680;-89
2022/10/01 06:19:56;;;;;;;26.20;23.40;;;;;;;10.63;76.14;100170.77;108344;1271;24278;-85
2022/10/01 06:22:23;;;;;;;25.00;22.50;;;;;;;10.74;76.17;100174.49;108056;1280;22579;-87
2022/10/01 06:24:50;;;;;;;25.30;23.00;;;;;;;10.86;75.91;100168.70;107857;1284;22658;-85
2022/10/01 06:27:22;;;;;;;23.00;20.50;;;;;;;10.96;75.57;100168.39;107624;1284;22556;-84
2022/10/01 06:29:50;;;;;;;24.30;21.90;;;;;;;11.01;75.15;100172.19;106738;1291;23970;-88
2022/10/01 06:32:18;;;;;;;25.20;22.70;;;;;;;11.00;74.75;100168.33;105265;1297;24306;-81
2022/10/01 06:35:07;;;;;;;24.70;22.30;;;;;;;11.03;74.74;100162.10;103146;1306;545953;-83
2022/10/01 06:37:38;;;;;;;21.80;19.70;;;;;;;11.01;74.51;100162.84;105421;1281;25478;-83
2022/10/01 06:40:06;;;;;;;23.00;20.60;;;;;;;11.05;74.67;100163.31;105453;1283;22765;-81
2022/10/01 06:42:33;;;;;;;22.40;20.10;;;;;;;11.11;74.68;100159.00;105505;1283;24235;-81
2022/10/01 06:45:00;;;;;;;22.70;20.40;;;;;;;11.13;74.63;100162.87;105622;1283;22774;-87
2022/10/01 06:47:27;;;;;;;24.50;20.90;;;;;;;11.17;74.76;100160.33;105523;1286;22749;-84
2022/10/01 06:49:54;;;;;;;24.40;22.10;;;;;;;11.18;74.60;100158.55;105628;1281;25367;-83
2022/10/01 06:55:07;;;;;;;23.10;20.80;;;;;;;11.29;75.11;100160.32;105956;1280;22608;-92
2022/10/01 06:57:41;;;;;;;20.50;18.60;;;;;;;11.35;75.01;100157.92;105978;1283;24284;-85
2022/10/01 07:00:09;;;;;;;19.30;17.40;;;;;;;11.43;74.82;100154.28;105648;1284;22606;-86
2022/10/01 07:02:37;;;;;;;21.10;19.20;;;;;;;11.45;74.34;100153.18;105765;1281;22539;-85
2022/10/01 07:05:06;;;;;;;22.30;20.00;;;;;;;11.45;74.19;100154.77;105901;1280;22544;-85
2022/10/01 07:07:37;;;;;;;21.20;19.20;;;;;;;11.45;74.34;100153.71;105686;1281;26504;-81
2022/10/01 07:10:06;;;;;;;22.40;20.20;;;;;;;11.50;74.55;100155.73;105812;1281;24302;-83
2022/10/01 07:12:34;;;;;;;23.80;21.40;;;;;;;11.56;74.55;100159.52;106051;1281;22581;-86
2022/10/01 07:15:01;;;;;;;22.10;19.90;;;;;;;11.55;74.14;100158.66;105853;1286;25828;-88
2022/10/01 07:17:48;;;;;;;23.30;21.10;;;;;;;11.61;74.45;100158.92;105552;1285;22665;-84
2022/10/01 07:20:17;;;;;;;23.60;21.50;;;;;;;11.73;74.49;100154.83;105441;1287;23475;-85
2022/10/01 07:22:46;;;;;;;23.80;21.50;;;;;;;11.83;74.49;100150.79;105869;1277;23104;-82
2022/10/01 07:25:14;;;;;;;23.00;20.80;;;;;;;11.91;74.69;100148.34;105966;1278;22576;-84
2022/10/01 07:27:41;;;;;;;22.60;20.50;;;;;;;11.98;74.09;100148.04;105690;1277;25239;-83
2022/10/01 07:30:08;;;;;;;22.80;20.70;;;;;;;12.00;73.78;100148.19;105781;1277;26040;-86
2022/10/01 07:32:35;;;;;;;21.80;19.70;;;;;;;12.03;73.62;100149.17;105820;1272;22556;-85
2022/10/01 07:35:04;;;;;;;21.60;19.50;;;;;;;12.06;73.76;100148.59;106114;1274;23015;-88
2022/10/01 07:37:31;;;;;;;21.80;19.80;;;;;;;12.07;73.54;100152.10;106154;1271;25526;-88
2022/10/01 07:39:59;;;;;;;23.00;20.60;;;;;;;12.08;73.38;100149.81;106134;1277;22714;-85
2022/10/01 07:42:32;;;;;;;23.50;21.00;;;;;;;12.11;73.17;100146.40;106203;1277;24600;-85
2022/10/01 07:44:59;;;;;;;24.50;22.20;;;;;;;12.12;73.05;100145.50;106059;1284;22814;-82
2022/10/01 07:47:26;;;;;;;24.80;22.40;;;;;;;12.16;73.13;100148.44;105810;1286;24309;-84
2022/10/01 07:49:53;;;;;;;22.80;20.60;;;;;;;12.18;72.88;100148.23;106000;1286;23132;-79
2022/10/01 07:52:20;;;;;;;22.40;20.20;;;;;;;12.26;73.07;100151.94;106010;1286;22557;-84
2022/10/01 07:54:47;;;;;;;22.50;20.30;;;;;;;12.38;72.69;100153.11;106092;1283;23386;-84
2022/10/01 07:57:14;;;;;;;18.10;16.30;;;;;;;12.47;72.60;100152.92;105756;1283;24204;-84
2022/10/01 07:59:41;;;;;;;17.70;16.00;;;;;;;12.53;72.04;100148.58;105991;1280;22618;-83
2022/10/01 08:02:16;;;;;;;16.30;14.70;;;;;;;12.62;71.38;100155.44;105073;1286;24291;-86
2022/10/01 08:07:30;;;;;;;14.30;12.70;;;;;;;12.68;69.19;100163.64;105367;1282;24244;-81
2022/10/01 08:09:57;;;;;;;13.40;12.10;;;;;;;12.64;69.23;100162.29;105355;1282;23056;-84
2022/10/01 08:12:27;;;;;;;13.20;12.00;;;;;;;12.70;69.52;100158.80;105516;1281;22577;-83
2022/10/01 08:14:55;;;;;;;16.00;14.20;;;;;;;12.80;69.55;100158.58;105106;1287;24316;-83
2022/10/01 08:17:21;;;;;;;15.00;13.50;;;;;;;12.91;69.37;100152.70;105988;1290;23141;-78
2022/10/01 08:19:55;;;;;;;17.10;15.50;;;;;;;13.02;69.26;100147.69;105032;1286;25841;-80
2022/10/01 08:22:22;;;;;;;15.80;14.20;;;;;;;13.08;69.02;100141.88;106344;1283;22596;-83
2022/10/01 08:24:49;;;;;;;15.20;13.70;;;;;;;13.14;69.13;100137.50;106311;1283;22685;-78
2022/10/01 08:27:16;;;;;;;16.40;14.90;;;;;;;13.24;68.86;100135.67;106038;1282;24231;-79
2022/10/01 08:29:42;;;;;;;15.60;14.00;;;;;;;13.38;68.70;100134.43;105887;1286;22570;-78
2022/10/01 08:32:10;;;;;;;19.00;17.10;;;;;;;13.54;68.19;100130.89;105360;1287;25255;-79
2022/10/01 08:34:37;;;;;;;19.90;16.30;;;;;;;13.62;67.73;100129.45;105543;1283;22799;-78
2022/10/01 08:37:04;;;;;;;20.60;18.60;;;;;;;13.71;67.77;100127.63;105644;1286;22520;-80
2022/10/01 08:39:31;;;;;;;20.40;18.30;;;;;;;13.83;67.44;100121.13;105602;1282;22567;-78
2022/10/01 08:42:35;;;;;;;20.60;18.60;;;;;;;13.89;67.22;100117.95;105413;1282;25254;-79
2022/10/01 08:45:11;;;;;;;20.50;18.50;;;;;;;13.99;67.20;100112.53;105325;1282;22580;-79
2022/10/01 08:47:43;;;;;;;20.50;18.50;;;;;;;14.01;66.80;100109.65;105236;1282;22702;-77
2022/10/01 08:50:48;;;;;;;22.30;20.30;;;;;;;14.00;67.01;100107.90;105273;1280;22557;-76
2022/10/01 08:53:38;;;;;;;20.70;18.50;;;;;;;14.04;66.71;100111.70;105800;1279;23066;-78
2022/10/01 08:56:16;;;;;;;18.30;16.50;;;;;;;14.04;66.65;100105.48;106034;1273;22626;-78
2022/10/01 08:58:49;;;;;;;19.30;17.40;;;;;;;14.02;66.34;100108.58;106885;1271;22596;-87
2022/10/01 09:01:16;;;;;;;18.80;17.10;;;;;;;14.03;66.49;100107.99;106880;1272;22987;-78
2022/10/01 09:03:43;;;;;;;18.20;16.60;;;;;;;14.10;66.48;100098.64;106186;1271;24281;-79
2022/10/01 09:06:27;;;;;;;18.60;16.90;;;;;;;14.12;66.31;100091.11;106188;1272;22529;-78
2022/10/01 09:09:06;;;;;;;16.20;14.60;;;;;;;14.13;66.24;100096.58;106194;1271;24290;-84
2022/10/01 09:11:57;;;;;;;14.50;13.10;;;;;;;14.09;65.80;100092.81;106174;1271;23073;-84
2022/10/01 09:14:34;;;;;;;12.90;11.70;;;;;;;14.09;65.79;100092.09;106215;1272;25247;-79
2022/10/01 09:17:20;;;;;;;12.70;11.50;;;;;;;14.07;65.86;100092.86;106205;1271;22754;-80
2022/10/01 09:19:57;;;;;;;12.60;11.30;;;;;;;14.07;65.64;100089.32;106174;1273;22551;-79
2022/10/01 09:22:37;;;;;;;9.90;9.00;;;;;;;14.05;65.46;100085.63;106222;1271;23952;-77
2022/10/01 09:25:26;;;;;;;12.60;11.40;;;;;;;13.94;64.92;100074.27;105939;1277;24233;-77
2022/10/01 09:28:06;;;;;;;13.20;12.00;;;;;;;13.89;65.39;100075.86;105978;1277;24291;-74
2022/10/01 09:30:35;;;;;;;14.70;13.20;;;;;;;13.88;65.30;100078.88;106061;1274;24285;-75
2022/10/01 09:33:14;;;;;;;14.20;12.50;;;;;;;13.84;65.34;100078.44;105946;1277;24252;-73
2022/10/01 09:36:03;;;;;;;13.20;11.90;;;;;;;13.73;65.14;100080.67;106074;1277;24240;-75
2022/10/01 09:38:47;;;;;;;13.10;11.90;;;;;;;13.59;65.73;100079.98;106039;1275;24144;-80
2022/10/01 09:41:14;;;;;;;13.10;11.90;;;;;;;13.51;65.80;100075.77;105880;1277;22701;-74
2022/10/01 09:43:42;;;;;;;12.60;11.40;;;;;;;13.43;66.03;100078.27;106163;1274;24346;-75
2022/10/01 09:46:15;;;;;;;13.00;11.80;;;;;;;13.43;66.45;100078.98;106302;1274;26573;-78
2022/10/01 09:49:08;;;;;;;13.10;11.90;;;;;;;13.42;66.45;100079.88;106508;1270;22526;-77
2022/10/01 09:51:41;;;;;;;13.70;12.10;;;;;;;13.35;66.48;100079.51;106374;1271;24294;-76
2022/10/01 09:54:15;;;;;;;13.00;11.70;;;;;;;13.24;66.77;100079.43;106404;1274;22550;-79
2022/10/01 09:57:18;;;;;;;13.60;12.30;;;;;;;13.21;67.22;100080.75;106292;1271;25394;-76
2022/10/01 10:00:17;;;;;;;14.60;13.20;;;;;;;13.27;67.66;100078.12;106059;1271;25307;-77
2022/10/01 10:02:46;;;;;;;15.00;13.70;;;;;;;13.26;67.40;100072.67;106359;1270;22615;-77
2022/10/01 10:05:18;;;;;;;16.60;15.00;;;;;;;13.26;67.38;100072.32;106419;1271;22554;-77
2022/10/01 10:07:57;;;;;;;15.50;14.00;;;;;;;13.21;67.59;100073.85;106089;1272;22567;-80
2022/10/01 10:10:34;;;;;;;14.20;12.80;;;;;;;13.29;67.85;100070.66;106133;1271;25451;-78
2022/10/01 10:13:16;;;;;;;15.80;14.20;;;;;;;13.35;67.77;100064.65;106001;1277;22550;-79
2022/10/01 10:15:51;;;;;;;15.10;13.60;;;;;;;13.47;67.78;100055.16;106159;1271;22548;-77
2022/10/01 10:18:28;;;;;;;16.60;15.10;;;;;;;13.51;67.59;100053.48;106117;1274;22528;-78
2022/10/01 10:20:58;;;;;;;15.30;13.90;;;;;;;13.55;67.77;100055.16;105647;1278;24503;-78
2022/10/01 10:23:25;;;;;;;15.70;14.30;;;;;;;13.59;67.54;100054.86;105617;1277;25251;-78
2022/10/01 10:26:01;;;;;;;14.80;13.50;;;;;;;13.55;67.43;100055.88;105822;1277;22555;-81
2022/10/01 10:28:37;;;;;;;;;;;;;;;13.48;67.07;100049.11;105170;1287;22651;-79
2022/10/01 10:31:14;;;;;;;14.30;13.00;;;;;;;13.39;67.18;100047.05;105160;1285;25266;-79
2022/10/01 10:34:15;;;;;;;13.30;12.00;;;;;;;13.33;67.32;100038.55;105028;1284;22579;-78
2022/10/01 10:36:44;;;;;;;12.80;11.50;;;;;;;13.25;67.30;100024.43;105122;1284;23879;-80
2022/10/01 10:39:28;;;;;;;14.60;12.70;;;;;;;13.26;67.60;100018.39;105502;1278;24268;-77
2022/10/01 10:41:57;;;;;;;13.30;12.00;;;;;;;13.26;67.49;100013.98;105767;1278;22708;-78
2022/10/01 10:44:33;;;;;;;14.60;13.30;;;;;;;13.25;67.54;100012.40;105734;1277;23450;-81
2022/10/01 10:47:06;;;;;;;15.50;14.00;;;;;;;13.23;67.59;100009.80;105784;1275;25058;-75
2022/10/01 10:49:42;;;;;;;15.30;13.90;;;;;;;13.22;67.73;100013.35;106182;1271;22796;-78
2022/10/01 10:52:27;;;;;;;15.70;14.30;;;;;;;13.14;67.63;100009.33;106013;1277;22860;-78
2022/10/01 10:54:56;;;;;;;16.30;14.90;;;;;;;13.12;68.17;100002.29;105993;1277;24072;-76
2022/10/01 10:57:26;;;;;;;17.00;15.40;;;;;;;13.11;68.41;100001.78;106221;1272;25582;-80
2022/10/01 10:59:58;;;;;;;16.00;14.50;;;;;;;13.19;68.74;100002.84;106099;1271;22555;-76
2022/10/01 11:02:30;;;;;;;14.90;13.50;;;;;;;13.26;68.46;99996.11;106191;1273;22530;-82
2022/10/01 11:05:19;;;;;;;16.70;15.10;;;;;;;13.30;68.42;99987.52;105996;1271;25401;-77
2022/10/01 11:07:49;;;;;;;17.40;15.70;;;;;;;13.34;68.36;99984.55;106125;1272;25376;-78
2022/10/01 11:10:30;;;;;;;16.20;14.70;;;;;;;13.40;68.26;99980.89;106075;1271;22597;-75
2022/10/01 11:13:17;;;;;;;16.50;14.60;;;;;;;13.32;67.95;99978.42;106231;1271;22857;-77
2022/10/01 11:16:04;;;;;;;15.40;13.50;;;;;;;13.28;68.20;99972.02;105959;1277;22568;-78
2022/10/01 11:18:55;;;;;;;14.80;13.40;;;;;;;13.31;68.36;99972.63;105801;1277;24290;-78
2022/10/01 11:21:27;;;;;;;14.40;13.00;;;;;;;13.30;68.10;99966.30;105822;1278;22563;-76
2022/10/01 11:24:31;;;;;;;14.20;12.90;;;;;;;13.30;67.86;99960.30;105956;1277;22772;-75
2022/10/01 11:27:05;;;;;;;14.00;12.60;;;;;;;13.25;67.81;99961.48;105878;1277;22549;-79
2022/10/01 11:29:42;;;;;;;14.80;13.50;;;;;;;13.19;68.12;99957.21;105822;1278;25561;-79
2022/10/01 11:32:46;;;;;;;15.50;14.10;;;;;;;13.27;68.41;99950.10;105510;1283;22703;-77
2022/10/01 11:35:25;;;;;;;16.30;14.70;;;;;;;13.47;68.39;99938.94;105823;1278;25849;-81